BAW480N EGLL-LEBL
Flight info
| Callsign | BAW480N |
|---|---|
| Flight time | N/A |
| Altitude | 37000 |
| Route | MODMI M185 MID L151 SITET UN859 SOPIL DCT BALAN DCT EVPOK DCT NARAK DCT GAI DCT LOMRA DCT ROCAN DCT PUMAL |
| Aircraft | A320/M-SDE3FGHIRWY/LB1 |
Departure
| Time | 2026-05-06 04:17 |
|---|---|
| Airport | London Heathrow Airport (EGLL) |
Arrival
| Time | N/A |
|---|---|
| Airport | Josep Tarradellas Barcelona-El Prat Airport (LEBL) |
| Time | Latitude | Longitude | Altitude | Speed | Heading |
|---|---|---|---|---|---|
| 2026-05-06 03:47 | 51.47099 | -0.44209 | 86 ft | 0 kts | 270° |
| 2026-05-06 04:03 | 51.47099 | -0.44192 | 89 ft | 4 kts | 270° |
| 2026-05-06 04:03 | 51.47099 | -0.44149 | 86 ft | 4 kts | 270° |
| 2026-05-06 04:03 | 51.47099 | -0.44110 | 86 ft | 2 kts | 270° |
| 2026-05-06 04:04 | 51.47103 | -0.44074 | 86 ft | 4 kts | 228° |
| 2026-05-06 04:04 | 51.47123 | -0.44057 | 87 ft | 3 kts | 180° |
| 2026-05-06 04:04 | 51.47143 | -0.44057 | 86 ft | 0 kts | 180° |
| 2026-05-06 04:08 | 51.47133 | -0.44057 | 89 ft | 3 kts | 179° |
| 2026-05-06 04:08 | 51.47103 | -0.44056 | 86 ft | 6 kts | 179° |
| 2026-05-06 04:09 | 51.47056 | -0.44056 | 88 ft | 8 kts | 181° |
| 2026-05-06 04:09 | 51.46994 | -0.44057 | 88 ft | 9 kts | 179° |
| 2026-05-06 04:09 | 51.46921 | -0.44055 | 86 ft | 11 kts | 179° |
| 2026-05-06 04:09 | 51.46836 | -0.44054 | 88 ft | 13 kts | 179° |
| 2026-05-06 04:10 | 51.46741 | -0.44052 | 86 ft | 15 kts | 179° |
| 2026-05-06 04:10 | 51.46669 | -0.44111 | 88 ft | 12 kts | 249° |
| 2026-05-06 04:10 | 51.46665 | -0.44255 | 86 ft | 14 kts | 269° |
| 2026-05-06 04:10 | 51.46665 | -0.44428 | 86 ft | 17 kts | 272° |
| 2026-05-06 04:11 | 51.46664 | -0.44626 | 86 ft | 19 kts | 270° |
| 2026-05-06 04:11 | 51.46664 | -0.44847 | 86 ft | 21 kts | 270° |
| 2026-05-06 04:11 | 51.46664 | -0.45043 | 86 ft | 17 kts | 270° |
| 2026-05-06 04:11 | 51.46662 | -0.45243 | 86 ft | 16 kts | 269° |
| 2026-05-06 04:12 | 51.46662 | -0.45381 | 86 ft | 13 kts | 270° |
| 2026-05-06 04:12 | 51.46661 | -0.45545 | 86 ft | 16 kts | 269° |
| 2026-05-06 04:12 | 51.46662 | -0.45738 | 86 ft | 19 kts | 270° |
| 2026-05-06 04:12 | 51.46662 | -0.45957 | 86 ft | 19 kts | 270° |
| 2026-05-06 04:13 | 51.46660 | -0.46131 | 87 ft | 16 kts | 270° |
| 2026-05-06 04:13 | 51.46660 | -0.46328 | 91 ft | 19 kts | 269° |
| 2026-05-06 04:13 | 51.46659 | -0.46549 | 90 ft | 21 kts | 270° |
| 2026-05-06 04:13 | 51.46658 | -0.46795 | 90 ft | 23 kts | 270° |
| 2026-05-06 04:14 | 51.46657 | -0.47065 | 90 ft | 25 kts | 269° |
| 2026-05-06 04:14 | 51.46656 | -0.47290 | 88 ft | 19 kts | 269° |
| 2026-05-06 04:14 | 51.46655 | -0.47520 | 86 ft | 22 kts | 270° |
| 2026-05-06 04:14 | 51.46655 | -0.47768 | 86 ft | 22 kts | 269° |
| 2026-05-06 04:15 | 51.46653 | -0.48024 | 86 ft | 24 kts | 270° |
| 2026-05-06 04:15 | 51.46654 | -0.48303 | 86 ft | 26 kts | 270° |
| 2026-05-06 04:15 | 51.46653 | -0.48588 | 86 ft | 22 kts | 269° |
| 2026-05-06 04:15 | 51.46624 | -0.48751 | 90 ft | 14 kts | 199° |
| 2026-05-06 04:16 | 51.46527 | -0.48772 | 88 ft | 15 kts | 148° |
| 2026-05-06 04:16 | 51.46481 | -0.48625 | 86 ft | 17 kts | 94° |
| 2026-05-06 04:16 | 51.46482 | -0.48182 | 88 ft | 72 kts | 89° |
| 2026-05-06 04:16 | 51.46487 | -0.47060 | 89 ft | 126 kts | 90° |
| 2026-05-06 04:17 | 51.46495 | -0.45429 | 114 ft | 163 kts | 89° |
| 2026-05-06 04:17 | 51.46473 | -0.43696 | 826 ft | 152 kts | 88° |
| 2026-05-06 04:17 | 51.46445 | -0.41951 | 1271 ft | 167 kts | 95° |
| 2026-05-06 04:17 | 51.45896 | -0.40139 | 1502 ft | 195 kts | 120° |
| 2026-05-06 04:18 | 51.45022 | -0.38291 | 1777 ft | 223 kts | 135° |
| 2026-05-06 04:18 | 51.43554 | -0.37083 | 2167 ft | 253 kts | 158° |
| 2026-05-06 04:18 | 51.41843 | -0.36151 | 2894 ft | 264 kts | 161° |
| 2026-05-06 04:18 | 51.40004 | -0.35819 | 3748 ft | 273 kts | 188° |
| 2026-05-06 04:19 | 51.38202 | -0.36822 | 4601 ft | 277 kts | 209° |
| 2026-05-06 04:19 | 51.36475 | -0.38212 | 5517 ft | 279 kts | 209° |
| 2026-05-06 04:19 | 51.34740 | -0.39601 | 6485 ft | 280 kts | 209° |
| 2026-05-06 04:19 | 51.32996 | -0.40988 | 7357 ft | 281 kts | 208° |
| 2026-05-06 04:20 | 51.31231 | -0.42383 | 8209 ft | 284 kts | 208° |
| 2026-05-06 04:20 | 51.29442 | -0.43791 | 8978 ft | 290 kts | 208° |
| 2026-05-06 04:20 | 51.27611 | -0.45229 | 9766 ft | 295 kts | 208° |
| 2026-05-06 04:20 | 51.25742 | -0.46703 | 10299 ft | 308 kts | 208° |
| 2026-05-06 04:21 | 51.23748 | -0.48292 | 10522 ft | 331 kts | 208° |
| 2026-05-06 04:21 | 51.21683 | -0.49932 | 11030 ft | 340 kts | 207° |
| 2026-05-06 04:21 | 51.19548 | -0.51601 | 11711 ft | 344 kts | 207° |
| 2026-05-06 04:21 | 51.17390 | -0.53270 | 12412 ft | 347 kts | 207° |
| 2026-05-06 04:22 | 51.15204 | -0.54950 | 13118 ft | 349 kts | 207° |
| 2026-05-06 04:22 | 51.13007 | -0.56637 | 13835 ft | 352 kts | 207° |
| 2026-05-06 04:22 | 51.10795 | -0.58341 | 14452 ft | 354 kts | 208° |
| 2026-05-06 04:23 | 51.06073 | -0.60736 | 15641 ft | 363 kts | 186° |
| 2026-05-06 04:23 | 51.03537 | -0.60652 | 16244 ft | 367 kts | 173° |
| 2026-05-06 04:23 | 51.01056 | -0.59644 | 16865 ft | 371 kts | 159° |
| 2026-05-06 04:23 | 50.98657 | -0.58057 | 17430 ft | 375 kts | 158° |
| 2026-05-06 04:24 | 50.96241 | -0.56452 | 18015 ft | 377 kts | 158° |
| 2026-05-06 04:24 | 50.93811 | -0.54843 | 18585 ft | 380 kts | 158° |
| 2026-05-06 04:24 | 50.91364 | -0.53227 | 19115 ft | 382 kts | 159° |
| 2026-05-06 04:24 | 50.88903 | -0.51605 | 19659 ft | 385 kts | 159° |
| 2026-05-06 04:25 | 50.86419 | -0.49974 | 20157 ft | 388 kts | 159° |
| 2026-05-06 04:25 | 50.83909 | -0.48330 | 20641 ft | 392 kts | 159° |
| 2026-05-06 04:25 | 50.81410 | -0.46691 | 21141 ft | 394 kts | 159° |
| 2026-05-06 04:25 | 50.78870 | -0.45028 | 21658 ft | 396 kts | 159° |
| 2026-05-06 04:26 | 50.76316 | -0.43359 | 22153 ft | 398 kts | 159° |
| 2026-05-06 04:26 | 50.73741 | -0.41680 | 22626 ft | 401 kts | 159° |
| 2026-05-06 04:26 | 50.71159 | -0.39998 | 23126 ft | 403 kts | 159° |
| 2026-05-06 04:26 | 50.68563 | -0.38305 | 23599 ft | 405 kts | 159° |
| 2026-05-06 04:27 | 50.65951 | -0.36595 | 23999 ft | 407 kts | 159° |
| 2026-05-06 04:27 | 50.63325 | -0.34880 | 24381 ft | 410 kts | 158° |
| 2026-05-06 04:27 | 50.60675 | -0.33160 | 24724 ft | 413 kts | 159° |
| 2026-05-06 04:27 | 50.58009 | -0.31439 | 25117 ft | 415 kts | 159° |
| 2026-05-06 04:28 | 50.55336 | -0.29714 | 25535 ft | 416 kts | 159° |
| 2026-05-06 04:28 | 50.52680 | -0.27997 | 25897 ft | 419 kts | 159° |
| 2026-05-06 04:28 | 50.49978 | -0.26251 | 26288 ft | 421 kts | 159° |
| 2026-05-06 04:28 | 50.47262 | -0.24496 | 26671 ft | 423 kts | 159° |
| 2026-05-06 04:29 | 50.44539 | -0.22738 | 27071 ft | 424 kts | 159° |
| 2026-05-06 04:29 | 50.41806 | -0.20976 | 27465 ft | 425 kts | 158° |
| 2026-05-06 04:29 | 50.39057 | -0.19207 | 27788 ft | 429 kts | 158° |
| 2026-05-06 04:29 | 50.36292 | -0.17432 | 28160 ft | 431 kts | 158° |
| 2026-05-06 04:30 | 50.33515 | -0.15651 | 28570 ft | 432 kts | 158° |
| 2026-05-06 04:30 | 50.30727 | -0.13866 | 28937 ft | 434 kts | 158° |
| 2026-05-06 04:30 | 50.27924 | -0.12075 | 29288 ft | 436 kts | 159° |
| 2026-05-06 04:30 | 50.25112 | -0.10277 | 29641 ft | 438 kts | 159° |
| 2026-05-06 04:31 | 50.22278 | -0.08468 | 30009 ft | 440 kts | 158° |
| 2026-05-06 04:31 | 50.19442 | -0.06642 | 30313 ft | 442 kts | 158° |
| 2026-05-06 04:31 | 50.16607 | -0.04731 | 30586 ft | 445 kts | 156° |
| 2026-05-06 04:31 | 50.13776 | -0.02752 | 30951 ft | 445 kts | 156° |
| 2026-05-06 04:32 | 50.10961 | -0.00768 | 31389 ft | 444 kts | 158° |
| 2026-05-06 04:32 | 50.08042 | 0.00777 | 31843 ft | 442 kts | 165° |
| 2026-05-06 04:32 | 50.05069 | 0.01995 | 32271 ft | 441 kts | 166° |
| 2026-05-06 04:32 | 50.02135 | 0.03162 | 32706 ft | 440 kts | 166° |
| 2026-05-06 04:33 | 49.99172 | 0.04317 | 33147 ft | 439 kts | 166° |
| 2026-05-06 04:33 | 49.96213 | 0.05460 | 33559 ft | 438 kts | 166° |
| 2026-05-06 04:33 | 49.93242 | 0.06605 | 33895 ft | 440 kts | 166° |
| 2026-05-06 04:33 | 49.90269 | 0.07759 | 34185 ft | 441 kts | 166° |
| 2026-05-06 04:34 | 49.87303 | 0.08920 | 34517 ft | 440 kts | 166° |
| 2026-05-06 04:34 | 49.84337 | 0.10087 | 34813 ft | 440 kts | 166° |
| 2026-05-06 04:34 | 49.81373 | 0.11249 | 35137 ft | 439 kts | 166° |
| 2026-05-06 04:34 | 49.78413 | 0.12406 | 35427 ft | 439 kts | 166° |
| 2026-05-06 04:35 | 49.75441 | 0.13565 | 35699 ft | 439 kts | 166° |
| 2026-05-06 04:35 | 49.72479 | 0.14722 | 35970 ft | 439 kts | 166° |
| 2026-05-06 04:35 | 49.70515 | 0.15487 | 36143 ft | 440 kts | 166° |
| 2026-05-06 04:35 | 49.67546 | 0.16642 | 36409 ft | 440 kts | 166° |
| 2026-05-06 04:36 | 49.64581 | 0.17812 | 36685 ft | 440 kts | 166° |
| 2026-05-06 04:36 | 49.61622 | 0.18998 | 36880 ft | 440 kts | 166° |
| 2026-05-06 04:36 | 49.58647 | 0.20204 | 36922 ft | 442 kts | 166° |
| 2026-05-06 04:37 | 49.52680 | 0.22630 | 36920 ft | 443 kts | 166° |
| 2026-05-06 04:37 | 49.46711 | 0.25035 | 36921 ft | 443 kts | 166° |
| 2026-05-06 04:38 | 49.40745 | 0.27422 | 36920 ft | 443 kts | 166° |
| 2026-05-06 04:38 | 49.34814 | 0.29782 | 36920 ft | 443 kts | 166° |
| 2026-05-06 04:39 | 49.28846 | 0.32170 | 36921 ft | 443 kts | 165° |
| 2026-05-06 04:39 | 49.22893 | 0.34680 | 36920 ft | 444 kts | 165° |
| 2026-05-06 04:40 | 49.16935 | 0.37228 | 36929 ft | 444 kts | 165° |
| 2026-05-06 04:40 | 49.10971 | 0.39743 | 36933 ft | 445 kts | 165° |
| 2026-05-06 04:41 | 49.04997 | 0.42246 | 36941 ft | 446 kts | 165° |
| 2026-05-06 04:41 | 48.99011 | 0.44736 | 36938 ft | 446 kts | 165° |
| 2026-05-06 04:42 | 48.93027 | 0.47222 | 36942 ft | 445 kts | 165° |
| 2026-05-06 04:42 | 48.87093 | 0.49700 | 36941 ft | 445 kts | 165° |
| 2026-05-06 04:43 | 48.81128 | 0.52179 | 36939 ft | 445 kts | 165° |
| 2026-05-06 04:43 | 48.75146 | 0.54616 | 36935 ft | 444 kts | 165° |
| 2026-05-06 04:44 | 48.69152 | 0.56949 | 36929 ft | 444 kts | 166° |
| 2026-05-06 04:44 | 48.63156 | 0.59260 | 36929 ft | 445 kts | 166° |
| 2026-05-06 04:45 | 48.57158 | 0.61595 | 36923 ft | 445 kts | 165° |
| 2026-05-06 04:45 | 48.51201 | 0.63929 | 36919 ft | 445 kts | 165° |
| 2026-05-06 04:46 | 48.45206 | 0.66332 | 36916 ft | 445 kts | 165° |
| 2026-05-06 04:46 | 48.39231 | 0.68788 | 36912 ft | 446 kts | 165° |
| 2026-05-06 04:47 | 48.33243 | 0.71234 | 36905 ft | 446 kts | 165° |
| 2026-05-06 04:47 | 48.27249 | 0.73662 | 36906 ft | 446 kts | 165° |
| 2026-05-06 04:48 | 48.21255 | 0.76065 | 36904 ft | 446 kts | 166° |
| 2026-05-06 04:48 | 48.15258 | 0.78419 | 36906 ft | 445 kts | 166° |
| 2026-05-06 04:49 | 48.09259 | 0.80752 | 36904 ft | 445 kts | 166° |
| 2026-05-06 04:49 | 48.03268 | 0.83095 | 36901 ft | 445 kts | 166° |
| 2026-05-06 04:50 | 47.97281 | 0.85442 | 36902 ft | 444 kts | 166° |
| 2026-05-06 04:50 | 47.91316 | 0.87766 | 36906 ft | 442 kts | 166° |
| 2026-05-06 04:51 | 47.85368 | 0.90084 | 36900 ft | 441 kts | 166° |
| 2026-05-06 04:51 | 47.79471 | 0.92383 | 36893 ft | 440 kts | 166° |
| 2026-05-06 04:52 | 47.73546 | 0.94674 | 36893 ft | 440 kts | 166° |
| 2026-05-06 04:52 | 47.67627 | 0.96944 | 36888 ft | 439 kts | 166° |
| 2026-05-06 04:53 | 47.61705 | 0.99220 | 36876 ft | 440 kts | 166° |
| 2026-05-06 04:53 | 47.55780 | 1.01508 | 36871 ft | 440 kts | 166° |
| 2026-05-06 04:54 | 47.49853 | 1.03787 | 36871 ft | 440 kts | 166° |
| 2026-05-06 04:54 | 47.43917 | 1.05963 | 36871 ft | 439 kts | 171° |
| 2026-05-06 04:55 | 47.37836 | 1.06326 | 36867 ft | 438 kts | 181° |
| 2026-05-06 04:55 | 47.31740 | 1.06171 | 36870 ft | 438 kts | 181° |
| 2026-05-06 04:56 | 47.25639 | 1.06023 | 36872 ft | 438 kts | 181° |
| 2026-05-06 04:56 | 47.19536 | 1.05895 | 36875 ft | 438 kts | 181° |
| 2026-05-06 04:57 | 47.13434 | 1.05768 | 36865 ft | 439 kts | 181° |
| 2026-05-06 04:57 | 47.07365 | 1.05623 | 36867 ft | 439 kts | 181° |
| 2026-05-06 04:58 | 47.01256 | 1.05464 | 36867 ft | 439 kts | 181° |
| 2026-05-06 04:58 | 46.95138 | 1.05225 | 36870 ft | 439 kts | 182° |
| 2026-05-06 04:59 | 46.89023 | 1.04937 | 36871 ft | 440 kts | 182° |
| 2026-05-06 04:59 | 46.82901 | 1.04659 | 36872 ft | 440 kts | 182° |
| 2026-05-06 05:00 | 46.76773 | 1.04395 | 36876 ft | 440 kts | 182° |
| 2026-05-06 05:00 | 46.70650 | 1.04132 | 36880 ft | 440 kts | 182° |
| 2026-05-06 05:01 | 46.64528 | 1.03873 | 36884 ft | 440 kts | 182° |
| 2026-05-06 05:01 | 46.58404 | 1.03619 | 36882 ft | 440 kts | 182° |
| 2026-05-06 05:02 | 46.52316 | 1.03480 | 36888 ft | 440 kts | 176° |
| 2026-05-06 05:02 | 46.46290 | 1.05110 | 36887 ft | 441 kts | 168° |
| 2026-05-06 05:03 | 46.40306 | 1.07124 | 36886 ft | 441 kts | 168° |
| 2026-05-06 05:03 | 46.34324 | 1.09122 | 36886 ft | 441 kts | 168° |
| 2026-05-06 05:04 | 46.28343 | 1.11112 | 36888 ft | 441 kts | 167° |
| 2026-05-06 05:04 | 46.22354 | 1.13103 | 36892 ft | 442 kts | 168° |
| 2026-05-06 05:05 | 46.16358 | 1.15093 | 36898 ft | 442 kts | 168° |
| 2026-05-06 05:05 | 46.10365 | 1.17070 | 36898 ft | 442 kts | 168° |
| 2026-05-06 05:06 | 46.04361 | 1.19046 | 36895 ft | 443 kts | 168° |
| 2026-05-06 05:06 | 45.98355 | 1.21027 | 36908 ft | 442 kts | 168° |
| 2026-05-06 05:07 | 45.92361 | 1.22993 | 36907 ft | 442 kts | 168° |
| 2026-05-06 05:07 | 45.86358 | 1.24963 | 36908 ft | 442 kts | 168° |
| 2026-05-06 05:08 | 45.80398 | 1.26914 | 36908 ft | 442 kts | 168° |
| 2026-05-06 05:08 | 45.74403 | 1.28870 | 36905 ft | 442 kts | 168° |
| 2026-05-06 05:09 | 45.68404 | 1.30823 | 36908 ft | 442 kts | 168° |
| 2026-05-06 05:09 | 45.62397 | 1.32779 | 36911 ft | 443 kts | 168° |
| 2026-05-06 05:10 | 45.56380 | 1.34721 | 36913 ft | 443 kts | 169° |
| 2026-05-06 05:10 | 45.50372 | 1.36670 | 36919 ft | 443 kts | 169° |
| 2026-05-06 05:11 | 45.44362 | 1.38609 | 36923 ft | 443 kts | 169° |
| 2026-05-06 05:11 | 45.38392 | 1.40533 | 36924 ft | 443 kts | 169° |
| 2026-05-06 05:12 | 45.32345 | 1.42480 | 36928 ft | 443 kts | 169° |
| 2026-05-06 05:12 | 45.26373 | 1.44395 | 36933 ft | 443 kts | 169° |
| 2026-05-06 05:13 | 45.20354 | 1.46321 | 36934 ft | 443 kts | 169° |
| 2026-05-06 05:13 | 45.14333 | 1.48238 | 36939 ft | 443 kts | 169° |
| 2026-05-06 05:14 | 45.08318 | 1.50149 | 36937 ft | 443 kts | 169° |
| 2026-05-06 05:14 | 45.02296 | 1.52070 | 36945 ft | 443 kts | 169° |
| 2026-05-06 05:15 | 44.96275 | 1.53983 | 36934 ft | 443 kts | 170° |
| 2026-05-06 05:15 | 44.90273 | 1.55886 | 36941 ft | 442 kts | 170° |
| 2026-05-06 05:16 | 44.84272 | 1.57786 | 36947 ft | 442 kts | 170° |
| 2026-05-06 05:16 | 44.78279 | 1.59671 | 36942 ft | 441 kts | 170° |
| 2026-05-06 05:17 | 44.72321 | 1.61541 | 36950 ft | 441 kts | 170° |
| 2026-05-06 05:17 | 44.66328 | 1.63416 | 36950 ft | 441 kts | 170° |
| 2026-05-06 05:18 | 44.60344 | 1.65293 | 36936 ft | 441 kts | 170° |
| 2026-05-06 05:18 | 44.54353 | 1.67174 | 36944 ft | 441 kts | 170° |
| 2026-05-06 05:19 | 44.48357 | 1.69038 | 36946 ft | 441 kts | 170° |
| 2026-05-06 05:19 | 44.42359 | 1.70904 | 36949 ft | 441 kts | 170° |
| 2026-05-06 05:20 | 44.36370 | 1.72772 | 36943 ft | 441 kts | 171° |
| 2026-05-06 05:20 | 44.30378 | 1.74624 | 36950 ft | 441 kts | 171° |
| 2026-05-06 05:21 | 44.24393 | 1.76219 | 36956 ft | 440 kts | 174° |
| 2026-05-06 05:21 | 44.18348 | 1.77465 | 36955 ft | 439 kts | 175° |
| 2026-05-06 05:22 | 44.12295 | 1.78693 | 36960 ft | 439 kts | 175° |
| 2026-05-06 05:22 | 44.06258 | 1.80007 | 36964 ft | 439 kts | 174° |
| 2026-05-06 05:23 | 44.00221 | 1.81358 | 36948 ft | 439 kts | 174° |
| 2026-05-06 05:23 | 43.91158 | 1.83076 | 36959 ft | 436 kts | 179° |
| 2026-05-06 05:24 | 43.85109 | 1.83580 | 36964 ft | 435 kts | 181° |
| 2026-05-06 05:24 | 43.80087 | 1.83931 | 36944 ft | 435 kts | 181° |
| 2026-05-06 05:25 | 43.74044 | 1.84456 | 36956 ft | 435 kts | 180° |
| 2026-05-06 05:25 | 43.68001 | 1.85053 | 36962 ft | 435 kts | 180° |
| 2026-05-06 05:26 | 43.61955 | 1.85655 | 36969 ft | 435 kts | 180° |
| 2026-05-06 05:26 | 43.55910 | 1.86249 | 36965 ft | 435 kts | 180° |
| 2026-05-06 05:27 | 43.49865 | 1.86841 | 36975 ft | 435 kts | 180° |
| 2026-05-06 05:27 | 43.43859 | 1.87414 | 36977 ft | 435 kts | 180° |
| 2026-05-06 05:28 | 43.37821 | 1.87974 | 36968 ft | 434 kts | 181° |
| 2026-05-06 05:28 | 43.31790 | 1.88544 | 36984 ft | 434 kts | 181° |
| 2026-05-06 05:29 | 43.25770 | 1.89127 | 36988 ft | 433 kts | 181° |
| 2026-05-06 05:29 | 43.19753 | 1.89706 | 36972 ft | 433 kts | 181° |
| 2026-05-06 05:30 | 43.13743 | 1.90279 | 36986 ft | 432 kts | 181° |
| 2026-05-06 05:30 | 43.07737 | 1.90853 | 36992 ft | 432 kts | 181° |
| 2026-05-06 05:31 | 43.01752 | 1.91413 | 36990 ft | 430 kts | 181° |
| 2026-05-06 05:31 | 42.95822 | 1.91974 | 36982 ft | 429 kts | 181° |
| 2026-05-06 05:32 | 42.89872 | 1.92544 | 36992 ft | 428 kts | 181° |
| 2026-05-06 05:32 | 42.83933 | 1.93099 | 36998 ft | 427 kts | 181° |
| 2026-05-06 05:33 | 42.78014 | 1.93663 | 36988 ft | 426 kts | 181° |
| 2026-05-06 05:33 | 42.72095 | 1.94223 | 36984 ft | 426 kts | 181° |
| 2026-05-06 05:34 | 42.66187 | 1.94815 | 36982 ft | 427 kts | 179° |
| 2026-05-06 05:34 | 42.60271 | 1.95889 | 36983 ft | 430 kts | 176° |
| 2026-05-06 05:35 | 42.54375 | 1.97223 | 36978 ft | 429 kts | 176° |
| 2026-05-06 05:35 | 42.48477 | 1.98509 | 36987 ft | 428 kts | 177° |
| 2026-05-06 05:36 | 42.42597 | 1.99693 | 36972 ft | 427 kts | 178° |
| 2026-05-06 05:36 | 42.36710 | 2.00847 | 36957 ft | 427 kts | 178° |
| 2026-05-06 05:37 | 42.30888 | 2.01991 | 36999 ft | 425 kts | 178° |
| 2026-05-06 05:37 | 42.25039 | 2.03138 | 37056 ft | 425 kts | 178° |
| 2026-05-06 05:38 | 42.19193 | 2.04283 | 37099 ft | 425 kts | 178° |
| 2026-05-06 05:38 | 42.13341 | 2.05450 | 37133 ft | 425 kts | 178° |
| 2026-05-06 05:39 | 42.07496 | 2.06631 | 37188 ft | 425 kts | 178° |
| 2026-05-06 05:39 | 42.01652 | 2.07807 | 37240 ft | 425 kts | 178° |
| 2026-05-06 05:40 | 41.95809 | 2.08981 | 37263 ft | 425 kts | 178° |
| 2026-05-06 05:40 | 41.89962 | 2.10188 | 37319 ft | 425 kts | 178° |
| 2026-05-06 05:41 | 41.84116 | 2.11397 | 37368 ft | 425 kts | 178° |
| 2026-05-06 05:41 | 41.78268 | 2.12602 | 37424 ft | 425 kts | 178° |
| 2026-05-06 05:42 | 41.72422 | 2.13803 | 37439 ft | 425 kts | 178° |
| 2026-05-06 05:42 | 41.66575 | 2.14997 | 37497 ft | 425 kts | 178° |
| 2026-05-06 05:43 | 41.60722 | 2.16190 | 37555 ft | 425 kts | 178° |
| 2026-05-06 05:43 | 41.54897 | 2.17374 | 37607 ft | 425 kts | 178° |
| 2026-05-06 05:44 | 41.49037 | 2.18560 | 37628 ft | 426 kts | 178° |
| 2026-05-06 05:44 | 41.43173 | 2.19743 | 37694 ft | 426 kts | 178° |
| 2026-05-06 05:45 | 41.37308 | 2.20919 | 37752 ft | 426 kts | 178° |
| 2026-05-06 05:45 | 41.31435 | 2.22092 | 37763 ft | 426 kts | 178° |
| 2026-05-06 05:46 | 41.25573 | 2.23263 | 37820 ft | 426 kts | 178° |
| 2026-05-06 05:46 | 41.19708 | 2.24432 | 37871 ft | 426 kts | 178° |
| 2026-05-06 05:47 | 41.13840 | 2.25596 | 37919 ft | 426 kts | 178° |
| 2026-05-06 05:47 | 41.08017 | 2.26748 | 37946 ft | 425 kts | 178° |
| 2026-05-06 05:48 | 41.02163 | 2.27911 | 38002 ft | 425 kts | 178° |
| 2026-05-06 05:48 | 40.96320 | 2.29069 | 38049 ft | 425 kts | 178° |